createdAt,value
2022-09-10T00:00:38.148Z,101911.50
2022-09-10T00:01:41.118Z,101909.80
2022-09-10T00:02:44.638Z,101908.14
2022-09-10T00:03:51.140Z,101912.76
2022-09-10T00:04:54.101Z,101911.06
2022-09-10T00:05:57.058Z,101908.52
2022-09-10T00:07:00.325Z,101902.38
2022-09-10T00:08:04.580Z,101899.86
2022-09-10T00:09:08.551Z,101904.48
2022-09-10T00:10:11.713Z,101900.90
2022-09-10T00:11:15.152Z,101900.23
2022-09-10T00:12:18.785Z,101903.20
2022-09-10T00:13:22.229Z,101897.72
2022-09-10T00:14:25.187Z,101897.72
2022-09-10T00:15:28.140Z,101886.11
2022-09-10T00:16:31.978Z,101896.21
2022-09-10T00:17:36.269Z,101895.36
2022-09-10T00:18:39.943Z,101885.67
2022-09-10T00:19:44.758Z,101895.77
2022-09-10T00:20:55.587Z,101885.02
2022-09-10T00:21:59.107Z,101895.30
2022-09-10T00:23:02.598Z,101890.05
2022-09-10T00:24:06.851Z,101890.23
2022-09-10T00:25:09.874Z,101891.27
2022-09-10T00:26:22.534Z,101882.40
2022-09-10T00:27:26.086Z,101886.83
2022-09-10T00:28:29.047Z,101881.55
2022-09-10T00:29:32.266Z,101881.77
2022-09-10T00:30:41.032Z,101887.42
2022-09-10T00:31:44.431Z,101888.47
2022-09-10T00:32:49.320Z,101884.25
2022-09-10T00:33:54.159Z,101894.34
2022-09-10T00:34:57.324Z,101885.47
2022-09-10T00:36:00.459Z,101892.83
2022-09-10T00:37:03.498Z,101901.23
2022-09-10T00:38:07.943Z,101893.87
2022-09-10T00:39:14.442Z,101896.60
2022-09-10T00:40:17.855Z,101896.83
2022-09-10T00:41:22.627Z,101898.70
2022-09-10T00:42:25.589Z,101891.34
2022-09-10T00:43:32.071Z,101887.77
2022-09-10T00:44:42.170Z,101893.42
2022-09-10T00:45:51.013Z,101894.45
2022-09-10T00:46:55.650Z,101888.36
2022-09-10T00:48:04.939Z,101886.66
2022-09-10T00:49:19.428Z,101890.61
2022-09-10T00:50:29.233Z,101889.98
2022-09-10T00:51:35.113Z,101886.58
2022-09-10T00:52:39.964Z,101888.66
2022-09-10T00:53:43.337Z,101895.38
2022-09-10T00:54:47.414Z,101896.59
2022-09-10T00:55:53.446Z,101894.90
2022-09-10T00:57:01.940Z,101893.41
2022-09-10T00:58:09.531Z,101890.69
2022-09-10T00:59:17.532Z,101896.34
2022-09-10T01:00:22.023Z,101892.75
2022-09-10T01:01:25.064Z,101897.38
2022-09-10T01:02:28.086Z,101897.38
2022-09-10T01:03:32.098Z,101894.64
2022-09-10T01:04:35.548Z,101898.44
2022-09-10T01:05:41.832Z,101894.64
2022-09-10T01:06:46.202Z,101889.38
2022-09-10T01:07:49.180Z,101891.05
2022-09-10T01:08:52.187Z,101894.64
2022-09-10T01:09:58.379Z,101885.58
2022-09-10T01:11:41.369Z,101891.05
2022-09-10T01:12:53.932Z,101888.31
2022-09-10T01:14:04.258Z,101893.16
2022-09-10T01:15:16.606Z,101893.52
2022-09-10T01:16:58.347Z,101884.69
2022-09-10T01:18:29.723Z,101892.05
2022-09-10T01:19:57.362Z,101891.37
2022-09-10T01:21:17.413Z,101895.14
2022-09-10T01:22:30.404Z,101895.55
2022-09-10T01:24:10.424Z,101897.61
2022-09-10T01:25:34.911Z,101901.37
2022-09-10T01:26:50.378Z,101902.62
2022-09-10T01:27:56.380Z,101894.61
2022-09-10T01:29:08.905Z,101898.59
2022-09-10T01:30:25.171Z,101894.34
2022-09-10T01:31:39.459Z,101892.64
2022-09-10T01:33:00.062Z,101896.41
2022-09-10T01:34:20.427Z,101895.59
2022-09-10T01:35:39.433Z,101892.86
2022-09-10T01:36:47.683Z,101895.77
2022-09-10T01:37:54.387Z,101896.80
2022-09-10T01:38:57.498Z,101891.52
2022-09-10T01:40:03.093Z,101896.14
2022-09-10T01:41:08.677Z,101891.73
2022-09-10T01:42:14.804Z,101889.00
2022-09-10T01:43:18.326Z,101896.36
2022-09-10T01:44:43.081Z,101897.39
2022-09-10T01:46:18.913Z,101896.36
2022-09-10T01:47:28.126Z,101894.66
2022-09-10T01:48:50.016Z,101895.87
2022-09-10T01:49:57.838Z,101903.62
2022-09-10T01:51:21.088Z,101897.48
2022-09-10T01:52:51.317Z,101894.11
2022-09-10T01:54:22.301Z,101897.87
2022-09-10T01:55:41.394Z,101896.36
2022-09-10T01:56:48.204Z,101896.58
2022-09-10T01:58:01.086Z,101893.14
2022-09-10T01:59:24.277Z,101892.28
2022-09-10T02:00:27.744Z,101893.32
2022-09-10T02:01:40.191Z,101887.00
2022-09-10T02:02:49.627Z,101889.73
2022-09-10T02:03:59.069Z,101884.48
2022-09-10T02:05:05.643Z,101895.41
2022-09-10T02:06:12.649Z,101894.56
2022-09-10T02:07:21.891Z,101895.59
2022-09-10T02:08:30.640Z,101894.75
2022-09-10T02:09:33.940Z,101902.09
2022-09-10T02:10:53.256Z,101890.31
2022-09-10T02:11:58.086Z,101896.80
2022-09-10T02:13:19.799Z,101894.92
2022-09-10T02:14:41.155Z,101885.24
2022-09-10T02:16:07.735Z,101892.77
2022-09-10T02:17:12.724Z,101887.48
2022-09-10T02:18:15.658Z,101897.56
2022-09-10T02:19:18.806Z,101892.09
2022-09-10T02:20:24.460Z,101896.53
2022-09-10T02:21:27.893Z,101902.66
2022-09-10T02:22:35.632Z,101891.73
2022-09-10T02:23:48.356Z,101887.76
2022-09-10T02:24:51.946Z,101886.73
2022-09-10T02:25:54.867Z,101885.70
2022-09-10T02:27:00.133Z,101889.28
2022-09-10T02:28:04.856Z,101889.28
2022-09-10T02:29:09.614Z,101894.56
2022-09-10T02:30:16.359Z,101901.91
2022-09-10T02:31:19.451Z,101901.73
2022-09-10T02:32:22.703Z,101903.40
2022-09-10T02:33:27.982Z,101901.52
2022-09-10T02:34:31.827Z,101885.97
2022-09-10T02:35:36.384Z,101895.72
2022-09-10T02:36:39.820Z,101900.97
2022-09-10T02:37:42.882Z,101904.37
2022-09-10T02:38:47.101Z,101904.37
2022-09-10T02:39:50.140Z,101906.08
2022-09-10T02:40:55.033Z,101901.45
2022-09-10T02:41:59.954Z,101907.78
2022-09-10T02:43:04.502Z,101910.51
2022-09-10T02:44:08.225Z,101908.41
2022-09-10T02:45:13.592Z,101904.02
2022-09-10T02:46:17.578Z,101910.30
2022-09-10T02:47:20.596Z,101911.99
2022-09-10T02:48:27.517Z,101914.73
2022-09-10T02:49:34.164Z,101908.23
2022-09-10T02:50:37.312Z,101908.23
2022-09-10T02:51:41.849Z,101913.52
2022-09-10T02:52:45.611Z,101905.13
2022-09-10T02:53:49.443Z,101905.13
2022-09-10T02:54:52.388Z,101908.69
2022-09-10T02:55:55.363Z,101913.97
2022-09-10T02:56:58.398Z,101922.17
2022-09-10T02:58:01.333Z,101923.02
2022-09-10T02:59:04.363Z,101921.98
2022-09-10T03:00:09.321Z,101911.05
2022-09-10T03:01:15.724Z,101922.83
2022-09-10T03:02:19.670Z,101911.91
2022-09-10T03:03:22.840Z,101920.10
2022-09-10T03:04:25.875Z,101916.34
2022-09-10T03:05:28.819Z,101909.80
2022-09-10T03:06:33.589Z,101916.12
2022-09-10T03:07:36.520Z,101918.86
2022-09-10T03:08:39.589Z,101913.39
2022-09-10T03:09:42.912Z,101920.55
2022-09-10T03:10:46.873Z,101925.17
2022-09-10T03:11:50.875Z,101929.79
2022-09-10T03:12:53.823Z,101925.17
2022-09-10T03:13:56.787Z,101926.20
2022-09-10T03:14:59.856Z,101933.59
2022-09-10T03:16:03.633Z,101932.73
2022-09-10T03:17:06.733Z,101928.30
2022-09-10T03:18:09.929Z,101926.42
2022-09-10T03:19:13.650Z,101925.56
2022-09-10T03:20:17.721Z,101925.56
2022-09-10T03:21:24.522Z,101930.85
2022-09-10T03:22:27.910Z,101927.27
2022-09-10T03:23:31.006Z,101927.27
2022-09-10T03:24:34.138Z,101923.47
2022-09-10T03:25:37.067Z,101927.91
2022-09-10T03:26:40.750Z,101923.47
2022-09-10T03:27:43.779Z,101923.47
2022-09-10T03:28:47.922Z,101914.23
2022-09-10T03:29:51.374Z,101914.23
2022-09-10T03:30:55.034Z,101911.72
2022-09-10T03:31:58.067Z,101910.88
2022-09-10T03:33:01.844Z,101916.34
2022-09-10T03:34:05.592Z,101911.72
2022-09-10T03:35:09.683Z,101908.98
2022-09-10T03:36:14.490Z,101922.83
2022-09-10T03:37:18.801Z,101920.10
2022-09-10T03:38:22.738Z,101920.95
2022-09-10T03:39:25.790Z,101917.37
2022-09-10T03:40:29.156Z,101925.56
2022-09-10T03:41:32.418Z,101926.42
2022-09-10T03:42:35.551Z,101928.30
2022-09-10T03:43:38.466Z,101934.62
2022-09-10T03:44:43.402Z,101927.27
2022-09-10T03:45:48.554Z,101925.56
2022-09-10T03:46:52.066Z,101928.30
2022-09-10T03:47:55.088Z,101930.19
2022-09-10T03:49:00.873Z,101937.35
2022-09-10T03:50:05.312Z,101944.70
2022-09-10T03:51:10.177Z,101935.65
2022-09-10T03:52:13.252Z,101941.12
2022-09-10T03:53:18.484Z,101940.27
2022-09-10T03:54:22.022Z,101939.41
2022-09-10T03:55:24.966Z,101939.59
2022-09-10T03:56:28.499Z,101935.20
2022-09-10T03:57:31.521Z,101931.80
2022-09-10T03:58:35.263Z,101933.00
2022-09-10T03:59:40.242Z,101938.47
2022-09-10T04:00:43.452Z,101935.95
2022-09-10T04:01:46.716Z,101929.64
2022-09-10T04:02:50.328Z,101934.25
2022-09-10T04:03:56.978Z,101921.63
2022-09-10T04:05:01.824Z,101922.65
2022-09-10T04:06:06.682Z,101928.30
2022-09-10T04:07:10.718Z,101934.61
2022-09-10T04:08:14.553Z,101932.09
2022-09-10T04:09:17.820Z,101940.29
2022-09-10T04:10:21.454Z,101940.44
2022-09-10T04:11:26.371Z,101943.35
2022-09-10T04:12:30.054Z,101948.81
2022-09-10T04:13:33.276Z,101941.65
2022-09-10T04:14:37.043Z,101940.16
2022-09-10T04:15:42.248Z,101935.73
2022-09-10T04:16:45.631Z,101940.34
2022-09-10T04:17:51.400Z,101944.31
2022-09-10T04:18:55.966Z,101939.88
2022-09-10T04:19:58.881Z,101942.61
2022-09-10T04:21:02.021Z,101941.77
2022-09-10T04:22:05.344Z,101938.17
2022-09-10T04:23:08.506Z,101941.94
2022-09-10T04:24:13.288Z,101941.94
2022-09-10T04:25:16.851Z,101948.44
2022-09-10T04:26:20.593Z,101939.39
2022-09-10T04:27:26.056Z,101945.70
2022-09-10T04:28:30.381Z,101943.82
2022-09-10T04:29:33.501Z,101947.41
2022-09-10T04:30:37.170Z,101942.80
2022-09-10T04:31:40.633Z,101937.51
2022-09-10T04:32:46.381Z,101938.36
2022-09-10T04:33:50.136Z,101942.97
2022-09-10T04:34:54.910Z,101941.94
2022-09-10T04:35:59.730Z,101945.70
2022-09-10T04:37:02.808Z,101949.47
2022-09-10T04:38:07.561Z,101946.55
2022-09-10T04:39:13.918Z,101951.17
2022-09-10T04:40:17.894Z,101952.02
2022-09-10T04:41:20.953Z,101954.57
2022-09-10T04:42:24.413Z,101948.08
2022-09-10T04:43:28.914Z,101949.78
2022-09-10T04:44:32.258Z,101951.27
2022-09-10T04:45:35.250Z,101937.42
2022-09-10T04:46:38.580Z,101947.11
2022-09-10T04:47:43.370Z,101941.47
2022-09-10T04:48:47.438Z,101943.17
2022-09-10T04:49:52.423Z,101930.21
2022-09-10T04:51:15.115Z,101938.20
2022-09-10T04:52:01.832Z,101945.18
2022-09-10T04:53:04.809Z,101935.10
2022-09-10T04:54:07.892Z,101941.20
2022-09-10T04:55:12.766Z,101942.05
2022-09-10T04:56:16.932Z,101947.16
2022-09-10T04:57:20.394Z,101943.39
2022-09-10T04:58:23.563Z,101935.20
2022-09-10T04:59:27.497Z,101941.30
2022-09-10T05:00:30.718Z,101939.23
2022-09-10T05:01:34.767Z,101947.25
2022-09-10T05:02:38.621Z,101947.04
2022-09-10T05:03:41.596Z,101949.59
2022-09-10T05:04:44.876Z,101962.02
2022-09-10T05:05:48.024Z,101956.55
2022-09-10T05:06:51.385Z,101959.09
2022-09-10T05:07:55.545Z,101958.91
2022-09-10T05:08:58.664Z,101959.77
2022-09-10T05:10:02.248Z,101962.31
2022-09-10T05:11:05.805Z,101961.25
2022-09-10T05:12:09.984Z,101961.92
2022-09-10T05:13:13.077Z,101962.77
2022-09-10T05:14:16.660Z,101964.47
2022-09-10T05:15:19.691Z,101966.99
2022-09-10T05:16:24.153Z,101975.02
2022-09-10T05:17:27.173Z,101970.39
2022-09-10T05:18:30.091Z,101977.56
2022-09-10T05:19:33.202Z,101977.38
2022-09-10T05:20:38.227Z,101978.23
2022-09-10T05:21:41.246Z,101979.91
2022-09-10T05:22:44.275Z,101981.61
2022-09-10T05:23:47.469Z,101977.84
2022-09-10T05:24:50.536Z,101972.19
2022-09-10T05:25:53.457Z,101969.45
2022-09-10T05:26:56.493Z,101967.56
2022-09-10T05:28:00.511Z,101958.30
2022-09-10T05:29:03.569Z,101965.69
2022-09-10T05:30:07.906Z,101965.47
2022-09-10T05:31:12.297Z,101974.52
2022-09-10T05:32:15.471Z,101978.77
2022-09-10T05:33:18.457Z,101972.27
2022-09-10T05:34:21.676Z,101962.16
2022-09-10T05:35:26.921Z,101964.70
2022-09-10T05:36:32.996Z,101969.98
2022-09-10T05:37:36.060Z,101969.98
2022-09-10T05:38:40.139Z,101956.13
2022-09-10T05:39:46.502Z,101964.12
2022-09-10T05:40:49.815Z,101960.17
2022-09-10T05:41:54.609Z,101950.71
2022-09-10T05:42:57.576Z,101945.72
2022-09-10T05:44:00.860Z,101942.59
2022-09-10T05:45:05.005Z,101940.33
2022-09-10T05:46:09.813Z,101938.05
2022-09-10T05:47:13.055Z,101941.04
2022-09-10T05:48:17.007Z,101946.77
2022-09-10T05:49:20.181Z,101947.03
2022-09-10T05:50:23.717Z,101947.10
2022-09-10T05:51:29.861Z,101940.00
2022-09-10T05:52:34.593Z,101931.00
2022-09-10T05:53:40.828Z,101929.19
2022-09-10T05:54:44.139Z,101921.85
2022-09-10T05:55:48.077Z,101925.91
2022-09-10T05:56:51.737Z,101924.90
2022-09-10T05:57:56.026Z,101924.33
2022-09-10T05:58:59.636Z,101927.12
2022-09-10T06:00:06.647Z,101931.62
2022-09-10T06:01:11.606Z,101932.91
2022-09-10T06:02:23.794Z,101936.73
2022-09-10T06:03:24.210Z,101938.67
2022-09-10T06:04:28.968Z,101937.22
2022-09-10T06:05:32.114Z,101938.31
2022-09-10T06:06:36.370Z,101943.19
2022-09-10T06:07:41.146Z,101939.02
2022-09-10T06:08:44.079Z,101944.73
2022-09-10T06:09:48.958Z,101949.61
2022-09-10T06:10:59.994Z,101952.58
2022-09-10T06:12:07.732Z,101946.68
2022-09-10T06:13:11.815Z,101957.06
2022-09-10T06:14:15.340Z,101949.27
2022-09-10T06:15:20.389Z,101942.32
2022-09-10T06:16:24.893Z,101946.38
2022-09-10T06:17:29.947Z,101938.58
2022-09-10T06:18:32.944Z,101937.95
2022-09-10T06:19:37.616Z,101941.97
2022-09-10T06:20:41.277Z,101936.09
2022-09-10T06:21:45.455Z,101936.52
2022-09-10T06:22:49.255Z,101948.77
2022-09-10T06:23:55.490Z,101937.39
2022-09-10T06:24:59.830Z,101937.82
2022-09-10T06:26:05.993Z,101935.73
2022-09-10T06:27:10.193Z,101931.70
2022-09-10T06:28:15.441Z,101924.98
2022-09-10T06:29:18.773Z,101930.03
2022-09-10T06:30:22.117Z,101921.61
2022-09-10T06:31:27.029Z,101924.80
2022-09-10T06:32:31.593Z,101924.41
2022-09-10T06:33:36.065Z,101918.29
2022-09-10T06:34:40.021Z,101921.45
2022-09-10T06:35:43.565Z,101924.65
2022-09-10T06:36:48.816Z,101922.13
2022-09-10T06:37:53.182Z,101927.17
2022-09-10T06:38:57.542Z,101935.02
2022-09-10T06:40:00.985Z,101936.48
2022-09-10T06:41:07.732Z,101935.23
2022-09-10T06:42:13.181Z,101933.95
2022-09-10T06:43:35.804Z,101938.19
2022-09-10T06:44:40.893Z,101936.09
2022-09-10T06:45:45.693Z,101935.24
2022-09-10T06:48:37.814Z,101936.09
2022-09-10T06:49:06.927Z,101934.16
2022-09-10T06:50:11.935Z,101935.24
2022-09-10T06:51:16.581Z,101932.70
2022-09-10T06:52:19.616Z,101938.19
2022-09-10T06:53:26.765Z,101940.09
2022-09-10T06:54:30.221Z,101935.64
2022-09-10T06:55:35.149Z,101939.67
2022-09-10T06:56:38.489Z,101939.02
2022-09-10T06:57:41.467Z,101939.45
2022-09-10T06:58:46.143Z,101936.06
2022-09-10T06:59:50.052Z,101937.31
2022-09-10T07:00:53.111Z,101942.18
2022-09-10T07:01:57.358Z,101942.58
2022-09-10T07:03:00.572Z,101934.58
2022-09-10T07:04:05.605Z,101937.52
2022-09-10T07:05:08.619Z,101943.02
2022-09-10T07:06:16.707Z,101951.24
2022-09-10T07:07:21.541Z,101947.45
2022-09-10T07:08:26.699Z,101940.88
2022-09-10T07:09:31.459Z,101942.58
2022-09-10T07:10:36.818Z,101935.64
2022-09-10T07:11:41.719Z,101932.47
2022-09-10T07:12:45.466Z,101934.38
2022-09-10T07:13:54.188Z,101933.55
2022-09-10T07:14:58.942Z,101927.22
2022-09-10T07:16:03.433Z,101927.00
2022-09-10T07:17:06.832Z,101920.66
2022-09-10T07:18:12.983Z,101921.52
2022-09-10T07:19:17.198Z,101926.38
2022-09-10T07:20:22.797Z,101918.98
2022-09-10T07:21:28.027Z,101923.62
2022-09-10T07:22:32.887Z,101920.85
2022-09-10T07:23:38.319Z,101918.34
2022-09-10T07:24:41.475Z,101918.53
2022-09-10T07:25:48.319Z,101915.98
2022-09-10T07:26:53.155Z,101913.44
2022-09-10T07:27:56.078Z,101909.86
2022-09-10T07:28:59.920Z,101908.16
2022-09-10T07:30:03.450Z,101907.72
2022-09-10T07:31:22.091Z,101912.56
2022-09-10T07:32:26.022Z,101913.84
2022-09-10T07:33:30.780Z,101914.87
2022-09-10T07:34:33.834Z,101918.03
2022-09-10T07:35:38.200Z,101911.03
2022-09-10T07:36:42.325Z,101911.22
2022-09-10T07:37:46.215Z,101912.70
2022-09-10T07:38:53.702Z,101913.09
2022-09-10T07:39:57.474Z,101898.08
2022-09-10T07:41:02.317Z,101906.73
2022-09-10T07:42:05.779Z,101900.80
2022-09-10T07:43:10.653Z,101903.31
2022-09-10T07:44:13.917Z,101904.80
2022-09-10T07:45:18.732Z,101900.53
2022-09-10T07:46:24.911Z,101892.92
2022-09-10T07:47:28.091Z,101892.25
2022-09-10T07:48:31.382Z,101893.70
2022-09-10T07:49:34.616Z,101896.03
2022-09-10T07:50:39.199Z,101901.08
2022-09-10T07:51:42.382Z,101899.81
2022-09-10T07:52:45.317Z,101904.86
2022-09-10T07:53:53.915Z,101900.20
2022-09-10T07:54:57.324Z,101896.61
2022-09-10T07:56:02.267Z,101897.66
2022-09-10T07:57:07.100Z,101900.66
2022-09-10T07:58:11.662Z,101897.91
2022-09-10T07:59:16.764Z,101896.00
2022-09-10T08:00:22.725Z,101889.20
2022-09-10T08:01:27.164Z,101887.08
2022-09-10T08:02:30.306Z,101885.77
2022-09-10T08:03:35.491Z,101877.94
2022-09-10T08:04:39.110Z,101880.23
2022-09-10T08:05:45.877Z,101874.30
2022-09-10T08:06:49.388Z,101883.80
2022-09-10T08:07:54.710Z,101875.08
2022-09-10T08:08:59.492Z,101869.98
2022-09-10T08:10:04.574Z,101868.49
2022-09-10T08:11:16.906Z,101859.77
2022-09-10T08:12:20.017Z,101857.43
2022-09-10T08:13:23.357Z,101856.97
2022-09-10T08:14:26.626Z,101856.54
2022-09-10T08:15:31.216Z,101852.69
2022-09-10T08:16:35.742Z,101852.09
2022-09-10T08:17:40.702Z,101842.14
2022-09-10T08:18:44.336Z,101851.92
2022-09-10T08:19:49.720Z,101851.92
2022-09-10T08:20:55.636Z,101845.78
2022-09-10T08:21:58.588Z,101848.75
2022-09-10T08:23:03.461Z,101845.41
2022-09-10T08:24:08.101Z,101845.62
2022-09-10T08:25:11.584Z,101842.23
2022-09-10T08:26:15.362Z,101846.26
2022-09-10T08:27:20.138Z,101839.52
2022-09-10T08:28:25.685Z,101836.98
2022-09-10T08:29:29.364Z,101837.41
2022-09-10T08:30:33.204Z,101840.41
2022-09-10T08:31:36.493Z,101831.52
2022-09-10T08:32:44.126Z,101834.48
2022-09-10T08:33:50.150Z,101838.33
2022-09-10T08:34:53.341Z,101839.15
2022-09-10T08:35:58.489Z,101839.15
2022-09-10T08:37:02.835Z,101843.84
2022-09-10T08:38:06.496Z,101839.15
2022-09-10T08:39:10.511Z,101842.15
2022-09-10T08:40:14.555Z,101842.99
2022-09-10T08:41:34.982Z,101831.14
2022-09-10T08:42:42.398Z,101834.73
2022-09-10T08:43:52.729Z,101825.63
2022-09-10T08:45:16.541Z,101832.83
2022-09-10T08:46:25.739Z,101827.92
2022-09-10T08:47:33.849Z,101827.92
2022-09-10T08:48:40.397Z,101828.77
2022-09-10T08:49:47.559Z,101838.94
2022-09-10T08:50:57.320Z,101827.92
2022-09-10T08:52:30.579Z,101826.86
2022-09-10T08:53:47.085Z,101827.49
2022-09-10T08:55:21.016Z,101838.27
2022-09-10T08:56:26.845Z,101830.00
2022-09-10T08:57:36.489Z,101829.16
2022-09-10T08:58:57.540Z,101830.46
2022-09-10T09:00:01.846Z,101834.06
2022-09-10T09:01:09.197Z,101826.02
2022-09-10T09:02:44.876Z,101821.81
2022-09-10T09:03:32.158Z,101824.78
2022-09-10T09:04:38.881Z,101819.50
2022-09-10T09:05:51.250Z,101821.40
2022-09-10T09:06:58.290Z,101815.89
2022-09-10T09:08:01.571Z,101818.65
2022-09-10T09:09:07.191Z,101814.62
2022-09-10T09:10:38.368Z,101819.06
2022-09-10T09:11:51.029Z,101814.38
2022-09-10T09:13:25.240Z,101805.90
2022-09-10T09:14:39.007Z,101809.50
2022-09-10T09:16:00.517Z,101812.03
2022-09-10T09:17:28.284Z,101801.02
2022-09-10T09:19:05.601Z,101797.81
2022-09-10T09:20:17.617Z,101802.04
2022-09-10T09:21:31.725Z,101790.81
2022-09-10T09:22:47.421Z,101794.16
2022-09-10T09:24:13.265Z,101790.13
2022-09-10T09:25:09.392Z,101796.89
2022-09-10T09:26:15.068Z,101790.33
2022-09-10T09:27:20.526Z,101797.91
2022-09-10T09:28:37.282Z,101793.63
2022-09-10T09:29:47.593Z,101791.66
2022-09-10T09:30:52.930Z,101792.45
2022-09-10T09:31:59.332Z,101794.89
2022-09-10T09:33:07.716Z,101786.56
2022-09-10T09:34:18.677Z,101801.97
2022-09-10T09:35:38.100Z,101793.61
2022-09-10T09:36:45.281Z,101796.30
2022-09-10T09:37:52.504Z,101785.83
2022-09-10T09:38:55.889Z,101792.08
2022-09-10T09:40:27.866Z,101794.77
2022-09-10T09:41:37.761Z,101797.45
2022-09-10T09:42:50.602Z,101804.58
2022-09-10T09:44:06.878Z,101808.36
2022-09-10T09:45:37.424Z,101798.31
2022-09-10T09:46:40.478Z,101798.20
2022-09-10T09:47:47.569Z,101796.20
2022-09-10T09:48:54.669Z,101799.09
2022-09-10T09:49:59.021Z,101806.45
2022-09-10T09:51:03.903Z,101798.53
2022-09-10T09:52:19.433Z,101804.22
2022-09-10T09:53:25.410Z,101797.98
2022-09-10T09:55:39.644Z,101800.66
2022-09-10T09:56:51.759Z,101798.25
2022-09-10T09:58:24.312Z,101801.60
2022-09-10T09:59:30.925Z,101804.75
2022-09-10T10:00:36.805Z,101803.69
2022-09-10T10:01:42.104Z,101790.23
2022-09-10T10:02:46.568Z,101794.69
2022-09-10T10:04:02.701Z,101788.09
2022-09-10T10:05:09.313Z,101793.36
2022-09-10T10:06:12.784Z,101791.21
2022-09-10T10:07:19.372Z,101787.38
2022-09-10T10:08:25.996Z,101791.83
2022-09-10T10:09:38.744Z,101795.66
2022-09-10T10:10:41.933Z,101786.53
2022-09-10T10:11:53.998Z,101792.28
2022-09-10T10:12:56.880Z,101786.17
2022-09-10T10:14:03.379Z,101783.87
2022-09-10T10:15:10.009Z,101788.19
2022-09-10T10:16:16.714Z,101791.17
2022-09-10T10:17:37.855Z,101784.68
2022-09-10T10:18:42.840Z,101783.47
2022-09-10T10:19:58.352Z,101778.41
2022-09-10T10:21:21.758Z,101782.27
2022-09-10T10:22:26.506Z,101780.58
2022-09-10T10:23:36.010Z,101768.92
2022-09-10T10:24:38.969Z,101778.27
2022-09-10T10:25:42.390Z,101771.91
2022-09-10T10:26:48.116Z,101769.77
2022-09-10T10:27:52.940Z,101763.18
2022-09-10T10:29:04.056Z,101760.42
2022-09-10T10:30:21.109Z,101755.74
2022-09-10T10:31:25.879Z,101759.34
2022-09-10T10:32:35.492Z,101758.27
2022-09-10T10:33:42.110Z,101753.34
2022-09-10T10:34:57.789Z,101759.48
2022-09-10T10:36:22.034Z,101759.25
2022-09-10T10:37:34.571Z,101756.00
2022-09-10T10:38:41.176Z,101750.84
2022-09-10T10:40:00.480Z,101753.98
2022-09-10T10:41:42.217Z,101753.50
2022-09-10T10:42:48.725Z,101758.08
2022-09-10T10:44:14.311Z,101756.28
2022-09-10T10:45:48.592Z,101746.70
2022-09-10T10:46:55.329Z,101750.88
2022-09-10T10:48:20.195Z,101739.61
2022-09-10T10:49:31.227Z,101744.06
2022-09-10T10:50:37.766Z,101744.64
2022-09-10T10:51:49.955Z,101740.80
2022-09-10T10:53:11.656Z,101743.91
2022-09-10T10:54:27.961Z,101730.52
2022-09-10T10:55:52.437Z,101735.09
2022-09-10T10:57:19.617Z,101721.39
2022-09-10T10:58:29.202Z,101726.80
2022-09-10T10:59:55.563Z,101728.34
2022-09-10T11:01:05.041Z,101715.48
2022-09-10T11:02:14.541Z,101712.36
2022-09-10T11:03:24.285Z,101714.39
2022-09-10T11:04:46.205Z,101715.10
2022-09-10T11:06:05.002Z,101714.60
2022-09-10T11:07:14.379Z,101711.09
2022-09-10T11:08:41.976Z,101702.91
2022-09-10T11:09:55.359Z,101701.59
2022-09-10T11:12:34.302Z,101692.28
2022-09-10T11:13:40.958Z,101697.59
2022-09-10T11:14:50.890Z,101705.64
2022-09-10T11:16:06.728Z,101700.48
2022-09-10T11:17:33.821Z,101703.83
2022-09-10T11:18:41.278Z,101693.36
2022-09-10T11:20:17.652Z,101693.12
2022-09-10T11:21:22.767Z,101687.59
2022-09-10T11:22:30.412Z,101682.06
2022-09-10T11:23:40.073Z,101677.61
2022-09-10T11:24:52.579Z,101675.69
2022-09-10T11:26:05.106Z,101668.47
2022-09-10T11:27:20.878Z,101672.32
2022-09-10T11:28:27.711Z,101671.48
2022-09-10T11:29:56.849Z,101662.09
2022-09-10T11:31:03.497Z,101661.25
2022-09-10T11:32:15.908Z,101667.02
2022-09-10T11:33:25.243Z,101663.41
2022-09-10T11:34:47.309Z,101659.00
2022-09-10T11:36:11.972Z,101656.70
2022-09-10T11:37:18.615Z,101657.22
2022-09-10T11:38:31.067Z,101657.45
2022-09-10T11:39:37.264Z,101657.69
2022-09-10T11:41:15.609Z,101655.16
2022-09-10T11:42:25.143Z,101657.12
2022-09-10T11:43:49.967Z,101657.12
2022-09-10T11:45:28.137Z,101653.51
2022-09-10T11:46:44.182Z,101647.37
2022-09-10T11:47:55.531Z,101642.92
2022-09-10T11:49:17.417Z,101649.53
2022-09-10T11:50:34.509Z,101647.88
2022-09-10T11:51:39.508Z,101647.04
2022-09-10T11:52:42.667Z,101648.12
2022-09-10T11:53:45.831Z,101644.52
2022-09-10T11:54:48.977Z,101646.43
2022-09-10T11:56:13.581Z,101643.91
2022-09-10T11:57:31.897Z,101639.48
2022-09-10T11:58:56.482Z,101642.48
2022-09-10T12:00:19.188Z,101635.51
2022-09-10T12:01:34.703Z,101634.33
2022-09-10T12:02:47.223Z,101633.38
2022-09-10T12:04:16.740Z,101620.07
2022-09-10T12:05:29.182Z,101627.76
2022-09-10T12:06:54.366Z,101630.75
2022-09-10T12:08:06.793Z,101633.75
2022-09-10T12:09:19.367Z,101624.89
2022-09-10T12:10:52.704Z,101637.86
2022-09-10T12:12:02.780Z,101630.05
2022-09-10T12:13:11.147Z,101637.76
2022-09-10T12:14:16.960Z,101628.02
2022-09-10T12:15:22.354Z,101631.28
2022-09-10T12:16:38.553Z,101626.22
2022-09-10T12:17:44.687Z,101629.48
2022-09-10T12:18:51.143Z,101627.20
2022-09-10T12:19:56.715Z,101619.17
2022-09-10T12:21:03.321Z,101624.94
2022-09-10T12:22:09.763Z,101626.02
2022-09-10T12:23:19.550Z,101620.48
2022-09-10T12:24:26.266Z,101624.94
2022-09-10T12:25:34.182Z,101624.09
2022-09-10T12:26:43.081Z,101620.25
2022-09-10T12:27:49.438Z,101622.52
2022-09-10T12:28:58.884Z,101629.95
2022-09-10T12:30:22.192Z,101625.28
2022-09-10T12:31:27.051Z,101628.04
2022-09-10T12:32:30.182Z,101621.44
2022-09-10T12:33:36.557Z,101633.33
2022-09-10T12:34:40.457Z,101631.17
2022-09-10T12:35:49.718Z,101621.81
2022-09-10T12:36:56.328Z,101618.78
2022-09-10T12:38:36.134Z,101619.39
2022-09-10T12:39:39.345Z,101620.80
2022-09-10T12:40:45.225Z,101618.04
2022-09-10T12:41:52.528Z,101615.28
2022-09-10T12:43:01.828Z,101615.28
2022-09-10T12:44:25.108Z,101617.81
2022-09-10T12:46:06.704Z,101606.75
2022-09-10T12:47:19.273Z,101602.58
2022-09-10T12:48:26.825Z,101595.59
2022-09-10T12:49:27.416Z,101599.94
2022-09-10T12:50:33.875Z,101595.73
2022-09-10T12:51:49.431Z,101593.70
2022-09-10T12:52:56.125Z,101605.83
2022-09-10T12:54:08.774Z,101596.97
2022-09-10T12:55:41.348Z,101596.13
2022-09-10T12:57:18.308Z,101594.44
2022-09-10T12:58:52.588Z,101590.59
2022-09-10T13:00:05.078Z,101590.59
2022-09-10T13:01:26.956Z,101589.75